Time;durP1;ratioP1;P1;durP2;ratioP2;P2;SDS_P1;SDS_P2;PMS_P1;PMS_P2;Temp;Humidity;BMP_temperature;BMP_pressure;BME280_temperature;BME280_humidity;BME280_pressure;Samples;Min_cycle;Max_cycle;Signal;HPM_P1;HPM_P2
2023/12/23 00:01:43;;;;;;;24.83;22.98;;;;;;;;;;4147808;28;20076;-60
2023/12/23 00:03:46;;;;;;;27.05;23.70;;;;;;;;;;4147880;28;20132;-60
2023/12/23 00:05:50;;;;;;;27.17;24.55;;;;;;;;;;4148281;28;20042;-61
2023/12/23 00:07:53;;;;;;;26.50;24.80;;;;;;;;;;4147494;28;20033;-61
2023/12/23 00:09:57;;;;;;;26.00;23.52;;;;;;;;;;4148073;28;20045;-61
2023/12/23 00:12:00;;;;;;;28.25;26.05;;;;;;;;;;4148263;28;20038;-60
2023/12/23 00:14:03;;;;;;;27.10;23.80;;;;;;;;;;4148417;28;20140;-61
2023/12/23 00:16:06;;;;;;;25.83;23.58;;;;;;;;;;4148119;28;20065;-60
2023/12/23 00:18:10;;;;;;;28.88;26.02;;;;;;;;;;4147864;28;20108;-61
2023/12/23 00:20:13;;;;;;;25.05;22.80;;;;;;;;;;4148105;28;20054;-61
2023/12/23 00:22:16;;;;;;;23.80;22.27;;;;;;;;;;4147885;28;20065;-61
2023/12/23 00:24:20;;;;;;;27.40;24.88;;;;;;;;;;4147805;28;20100;-61
2023/12/23 00:26:23;;;;;;;23.85;21.75;;;;;;;;;;4148203;28;20046;-62
2023/12/23 00:28:26;;;;;;;28.23;23.52;;;;;;;;;;4147261;28;20073;-61
2023/12/23 00:30:29;;;;;;;25.52;22.90;;;;;;;;;;4147561;28;20042;-61
2023/12/23 00:32:33;;;;;;;26.20;23.77;;;;;;;;;;4147255;28;20486;-60
2023/12/23 00:34:36;;;;;;;24.05;22.23;;;;;;;;;;4146822;28;20121;-61
2023/12/23 00:36:39;;;;;;;25.33;22.80;;;;;;;;;;4146128;28;20129;-59
2023/12/23 00:38:43;;;;;;;25.52;23.65;;;;;;;;;;4146953;28;20046;-61
2023/12/23 00:40:46;;;;;;;24.98;22.92;;;;;;;;;;4147326;28;20046;-61
2023/12/23 00:42:49;;;;;;;25.45;23.20;;;;;;;;;;4147236;28;20057;-61
2023/12/23 00:44:53;;;;;;;28.17;26.05;;;;;;;;;;4147430;28;20038;-61
2023/12/23 00:46:56;;;;;;;23.00;21.20;;;;;;;;;;4147431;28;20080;-62
2023/12/23 00:48:59;;;;;;;26.83;24.50;;;;;;;;;;4147521;28;20045;-60
2023/12/23 00:51:02;;;;;;;24.48;22.98;;;;;;;;;;4130018;28;20058;-61
2023/12/23 00:53:05;;;;;;;24.65;22.73;;;;;;;;;;4147578;28;20500;-61
2023/12/23 00:55:08;;;;;;;24.23;23.02;;;;;;;;;;4147759;28;20458;-60
2023/12/23 00:57:12;;;;;;;26.00;24.35;;;;;;;;;;4147615;28;20057;-61
2023/12/23 00:59:17;;;;;;;26.42;23.77;;;;;;;;;;4147730;28;20046;-61
2023/12/23 01:01:20;;;;;;;24.50;22.65;;;;;;;;;;4147489;28;20363;-61
2023/12/23 01:03:24;;;;;;;25.90;23.98;;;;;;;;;;4147425;28;20061;-61
2023/12/23 01:05:27;;;;;;;26.65;23.85;;;;;;;;;;4147682;28;20050;-60
2023/12/23 01:07:28;;;;;;;23.83;22.60;;;;;;;;;;4147477;28;20042;-61
2023/12/23 01:09:30;;;;;;;27.23;24.43;;;;;;;;;;4160266;28;20061;-61
2023/12/23 01:11:32;;;;;;;25.03;23.57;;;;;;;;;;4146212;28;20057;-61
2023/12/23 01:13:33;;;;;;;29.17;26.70;;;;;;;;;;4163991;28;20047;-61
2023/12/23 01:15:35;;;;;;;23.92;21.90;;;;;;;;;;4163764;28;20037;-61
2023/12/23 01:17:37;;;;;;;24.40;22.45;;;;;;;;;;4132933;28;20589;-61
2023/12/23 01:19:39;;;;;;;;;;;;;;;;;;4147835;28;20100;-61
2023/12/23 01:21:41;;;;;;;25.27;23.50;;;;;;;;;;4147354;28;19944;-61
2023/12/23 01:23:42;;;;;;;25.83;23.93;;;;;;;;;;4142660;28;20439;-61
2023/12/23 01:25:44;;;;;;;25.23;23.08;;;;;;;;;;4131169;28;20289;-61
2023/12/23 01:27:46;;;;;;;;;;;;;;;;;;4131509;28;20121;-61
2023/12/23 01:29:50;;;;;;;24.20;22.20;;;;;;;;;;4137086;28;20393;-61
2023/12/23 01:31:52;;;;;;;26.50;24.52;;;;;;;;;;4147573;28;20046;-61
2023/12/23 01:33:53;;;;;;;29.90;25.90;;;;;;;;;;4147288;28;20049;-61
2023/12/23 01:35:55;;;;;;;25.50;23.25;;;;;;;;;;4147358;28;20038;-60
2023/12/23 01:37:57;;;;;;;25.48;23.52;;;;;;;;;;4147574;28;20046;-61
2023/12/23 01:40:01;;;;;;;26.90;24.90;;;;;;;;;;4149269;28;20056;-59
2023/12/23 01:42:03;;;;;;;26.98;24.92;;;;;;;;;;4150196;28;20045;-59
2023/12/23 01:44:04;;;;;;;26.13;24.10;;;;;;;;;;4150420;28;20497;-59
2023/12/23 01:46:06;;;;;;;27.47;25.30;;;;;;;;;;4132851;28;20043;-60
2023/12/23 01:48:09;;;;;;;25.47;23.23;;;;;;;;;;4150132;28;20296;-60
2023/12/23 01:50:11;;;;;;;24.52;22.35;;;;;;;;;;4150053;28;20046;-59
2023/12/23 01:52:13;;;;;;;26.55;23.88;;;;;;;;;;4154283;28;20087;-59
2023/12/23 01:54:14;;;;;;;26.75;24.17;;;;;;;;;;4166388;28;20041;-59
2023/12/23 01:56:16;;;;;;;28.50;25.77;;;;;;;;;;4166395;28;20095;-59
2023/12/23 01:58:19;;;;;;;27.65;25.75;;;;;;;;;;4148739;28;20288;-59
2023/12/23 02:00:22;;;;;;;28.80;26.30;;;;;;;;;;4166119;28;20049;-59
2023/12/23 02:02:23;;;;;;;29.83;27.20;;;;;;;;;;4166091;28;20064;-59
2023/12/23 02:04:25;;;;;;;28.10;25.95;;;;;;;;;;4166312;28;20041;-59
2023/12/23 02:06:27;;;;;;;26.27;23.52;;;;;;;;;;4166224;28;20057;-59
2023/12/23 02:08:29;;;;;;;26.70;23.98;;;;;;;;;;4166063;28;20105;-59
2023/12/23 02:10:30;;;;;;;28.17;26.13;;;;;;;;;;4166644;28;20049;-59
2023/12/23 02:12:48;;;;;;;25.00;22.90;;;;;;;;;;4166273;28;20052;-59
2023/12/23 02:15:04;;;;;;;27.35;25.33;;;;;;;;;;4166158;28;20707;-59
2023/12/23 02:17:06;;;;;;;28.23;25.75;;;;;;;;;;4166132;28;20041;-59
2023/12/23 02:19:08;;;;;;;29.38;26.77;;;;;;;;;;4133329;28;20122;-59
2023/12/23 02:21:10;;;;;;;29.58;27.33;;;;;;;;;;4116312;28;20134;-59
2023/12/23 02:23:13;;;;;;;27.97;25.90;;;;;;;;;;4133475;28;20089;-59
2023/12/23 02:25:15;;;;;;;26.83;24.88;;;;;;;;;;4133295;28;20042;-59
2023/12/23 02:27:19;;;;;;;31.30;26.07;;;;;;;;;;4133132;28;20130;-59
2023/12/23 02:29:21;;;;;;;31.48;27.13;;;;;;;;;;4134600;28;20312;-59
2023/12/23 02:31:23;;;;;;;27.45;25.17;;;;;;;;;;4137657;28;20053;-59
2023/12/23 02:33:25;;;;;;;28.95;27.13;;;;;;;;;;4147534;28;20049;-59
2023/12/23 02:35:27;;;;;;;30.77;28.27;;;;;;;;;;4149381;28;20461;-59
2023/12/23 02:37:28;;;;;;;30.50;28.33;;;;;;;;;;4135184;28;20044;-59
2023/12/23 02:39:30;;;;;;;29.13;26.33;;;;;;;;;;4149321;28;20100;-59
2023/12/23 02:41:31;;;;;;;29.97;27.37;;;;;;;;;;4149256;28;20041;-59
2023/12/23 02:43:33;;;;;;;28.48;26.25;;;;;;;;;;4149326;28;20070;-59
2023/12/23 02:45:35;;;;;;;32.58;28.63;;;;;;;;;;4115697;28;20130;-59
2023/12/23 02:47:36;;;;;;;30.33;27.80;;;;;;;;;;4149153;28;20042;-59
2023/12/23 02:49:38;;;;;;;29.73;27.20;;;;;;;;;;4132007;28;20113;-59
2023/12/23 02:51:39;;;;;;;29.73;27.30;;;;;;;;;;4148065;28;20038;-58
2023/12/23 02:53:41;;;;;;;29.38;27.23;;;;;;;;;;4133049;28;20039;-59
2023/12/23 02:55:42;;;;;;;27.23;25.27;;;;;;;;;;4142012;28;20476;-59
2023/12/23 02:57:44;;;;;;;28.10;25.97;;;;;;;;;;4147899;28;20402;-59
2023/12/23 02:59:46;;;;;;;27.70;25.83;;;;;;;;;;4148930;28;20281;-59
2023/12/23 03:01:47;;;;;;;31.20;28.10;;;;;;;;;;4148977;28;20046;-59
2023/12/23 03:03:49;;;;;;;30.63;27.90;;;;;;;;;;4148753;28;20104;-59
2023/12/23 03:05:52;;;;;;;31.38;28.77;;;;;;;;;;4148988;28;20281;-59
2023/12/23 03:07:54;;;;;;;33.60;31.33;;;;;;;;;;4148828;28;20437;-59
2023/12/23 03:09:55;;;;;;;34.10;31.55;;;;;;;;;;4132600;28;20100;-59
2023/12/23 03:11:57;;;;;;;31.92;28.77;;;;;;;;;;4133100;28;20042;-59
2023/12/23 03:14:00;;;;;;;36.20;27.10;;;;;;;;;;4136388;28;20125;-59
2023/12/23 03:16:01;;;;;;;;;;;;;;;;;;4149197;28;20049;-59
2023/12/23 03:18:03;;;;;;;29.33;26.65;;;;;;;;;;4148851;28;19966;-59
2023/12/23 03:20:05;;;;;;;33.10;29.48;;;;;;;;;;4148695;28;20050;-59
2023/12/23 03:22:06;;;;;;;32.90;30.33;;;;;;;;;;4148665;28;20088;-58
2023/12/23 03:24:08;;;;;;;33.33;30.35;;;;;;;;;;4148861;28;20049;-60
2023/12/23 03:26:10;;;;;;;30.98;27.65;;;;;;;;;;4148632;28;20053;-59
2023/12/23 03:28:11;;;;;;;32.53;29.35;;;;;;;;;;4148573;28;20037;-59
2023/12/23 03:30:13;;;;;;;30.63;28.05;;;;;;;;;;4158215;28;20042;-58
2023/12/23 03:32:15;;;;;;;31.67;28.83;;;;;;;;;;4165034;28;20080;-59
2023/12/23 03:34:16;;;;;;;32.00;28.93;;;;;;;;;;4159432;28;20080;-59
2023/12/23 03:36:18;;;;;;;30.20;27.67;;;;;;;;;;4131116;28;20093;-59
2023/12/23 03:38:21;;;;;;;31.23;28.50;;;;;;;;;;4130860;28;20046;-59
2023/12/23 03:40:23;;;;;;;30.48;27.45;;;;;;;;;;4148772;28;20080;-59
2023/12/23 03:42:25;;;;;;;32.40;29.63;;;;;;;;;;4148473;28;20452;-59
2023/12/23 03:44:26;;;;;;;34.07;29.70;;;;;;;;;;4148278;28;20050;-59
2023/12/23 03:46:28;;;;;;;32.75;29.42;;;;;;;;;;4130841;28;20080;-59
2023/12/23 03:48:30;;;;;;;31.35;29.05;;;;;;;;;;4148157;28;20505;-59
2023/12/23 03:50:31;;;;;;;31.07;27.80;;;;;;;;;;4148213;28;20049;-59
2023/12/23 03:52:33;;;;;;;32.80;29.88;;;;;;;;;;4155334;28;20034;-59
2023/12/23 03:54:34;;;;;;;32.85;29.88;;;;;;;;;;4164522;28;20046;-59
2023/12/23 03:56:36;;;;;;;33.60;30.88;;;;;;;;;;4147146;28;20041;-59
2023/12/23 03:58:38;;;;;;;34.17;31.07;;;;;;;;;;4164986;28;20056;-59
2023/12/23 04:00:39;;;;;;;33.15;30.33;;;;;;;;;;4164150;28;20410;-59
2023/12/23 04:02:41;;;;;;;31.95;28.05;;;;;;;;;;4164177;28;20056;-59
2023/12/23 04:04:43;;;;;;;33.10;30.60;;;;;;;;;;4164451;28;20497;-59
2023/12/23 04:06:45;;;;;;;35.20;31.77;;;;;;;;;;4164705;28;20133;-59
2023/12/23 04:08:46;;;;;;;31.88;30.20;;;;;;;;;;4164029;28;20045;-59
2023/12/23 04:10:48;;;;;;;32.88;29.88;;;;;;;;;;4154351;28;20124;-59
2023/12/23 04:12:50;;;;;;;39.22;29.90;;;;;;;;;;4148282;28;20046;-59
2023/12/23 04:14:52;;;;;;;35.40;31.63;;;;;;;;;;4147873;28;20477;-59
2023/12/23 04:16:54;;;;;;;35.37;30.70;;;;;;;;;;4147846;28;20048;-59
2023/12/23 04:18:55;;;;;;;32.92;30.13;;;;;;;;;;4147880;28;20288;-59
2023/12/23 04:20:57;;;;;;;34.25;30.92;;;;;;;;;;4147874;28;20038;-59
2023/12/23 04:22:59;;;;;;;30.92;28.35;;;;;;;;;;4130489;28;20054;-59
2023/12/23 04:25:01;;;;;;;32.00;29.30;;;;;;;;;;4130409;28;20621;-59
2023/12/23 04:27:03;;;;;;;34.47;28.35;;;;;;;;;;4147973;28;20557;-58
2023/12/23 04:29:05;;;;;;;;;;;;;;;;;;4148310;28;20041;-59
2023/12/23 04:31:06;;;;;;;32.22;29.48;;;;;;;;;;4147846;28;19925;-59
2023/12/23 04:33:09;;;;;;;33.20;30.33;;;;;;;;;;4147444;28;20076;-58
2023/12/23 04:35:11;;;;;;;;;;;;;;;;;;4148170;28;20316;-59
2023/12/23 04:37:12;;;;;;;31.05;27.95;;;;;;;;;;4146334;28;19968;-58
2023/12/23 04:39:14;;;;;;;33.30;30.65;;;;;;;;;;4147675;28;20041;-59
2023/12/23 04:41:15;;;;;;;30.55;28.02;;;;;;;;;;4146369;28;20042;-59
2023/12/23 04:43:17;;;;;;;32.63;29.63;;;;;;;;;;4147944;28;20042;-59
2023/12/23 04:45:19;;;;;;;33.55;31.10;;;;;;;;;;4147686;28;20284;-59
2023/12/23 04:47:20;;;;;;;34.03;31.25;;;;;;;;;;4130272;28;20042;-59
2023/12/23 04:49:22;;;;;;;32.40;28.55;;;;;;;;;;4147532;28;20034;-59
2023/12/23 04:51:24;;;;;;;31.33;28.33;;;;;;;;;;4147524;28;20506;-59
2023/12/23 04:53:25;;;;;;;34.00;30.80;;;;;;;;;;4161829;28;20543;-59
2023/12/23 04:55:27;;;;;;;33.40;30.30;;;;;;;;;;4163839;28;20056;-59
2023/12/23 04:57:29;;;;;;;33.67;30.83;;;;;;;;;;4163911;28;20123;-59
2023/12/23 04:59:31;;;;;;;34.38;31.52;;;;;;;;;;4163842;28;20053;-59
2023/12/23 05:01:32;;;;;;;32.53;29.40;;;;;;;;;;4163647;28;20052;-59
2023/12/23 05:03:34;;;;;;;32.58;29.73;;;;;;;;;;4163651;28;20132;-59
2023/12/23 05:05:35;;;;;;;32.55;29.27;;;;;;;;;;4163863;28;20472;-59
2023/12/23 05:07:37;;;;;;;32.95;30.25;;;;;;;;;;4147720;28;20100;-59
2023/12/23 05:09:39;;;;;;;35.58;32.20;;;;;;;;;;4161524;28;20448;-59
2023/12/23 05:11:40;;;;;;;32.15;28.35;;;;;;;;;;4163686;28;20547;-59
2023/12/23 05:13:42;;;;;;;37.90;33.47;;;;;;;;;;4164073;28;20068;-59
2023/12/23 05:15:44;;;;;;;32.63;29.33;;;;;;;;;;4166967;28;20037;-59
2023/12/23 05:17:46;;;;;;;34.58;31.17;;;;;;;;;;4167307;28;20034;-59
2023/12/23 05:19:48;;;;;;;35.03;31.98;;;;;;;;;;4152471;28;20046;-60
2023/12/23 05:21:49;;;;;;;34.00;31.17;;;;;;;;;;4150512;28;20042;-59
2023/12/23 05:23:51;;;;;;;32.28;29.77;;;;;;;;;;4148819;28;20119;-59
2023/12/23 05:25:54;;;;;;;36.88;33.15;;;;;;;;;;4134309;28;20043;-58
2023/12/23 05:27:56;;;;;;;35.00;32.40;;;;;;;;;;4131422;28;20057;-59
2023/12/23 05:29:58;;;;;;;34.13;30.27;;;;;;;;;;4150328;28;20124;-59
2023/12/23 05:32:01;;;;;;;38.10;33.88;;;;;;;;;;4144301;28;20052;-59
2023/12/23 05:34:02;;;;;;;39.10;35.08;;;;;;;;;;4139043;28;20070;-59
2023/12/23 05:36:04;;;;;;;35.30;32.73;;;;;;;;;;4150497;28;20379;-59
2023/12/23 05:38:06;;;;;;;33.17;30.07;;;;;;;;;;4150313;28;20335;-59
2023/12/23 05:40:08;;;;;;;39.17;32.15;;;;;;;;;;4150168;28;20378;-59
2023/12/23 05:42:09;;;;;;;34.42;31.45;;;;;;;;;;4150239;28;20065;-59
2023/12/23 05:44:11;;;;;;;36.00;32.40;;;;;;;;;;4150219;28;20045;-59
2023/12/23 05:46:12;;;;;;;32.67;29.83;;;;;;;;;;4143810;28;20112;-59
2023/12/23 05:48:14;;;;;;;34.97;31.00;;;;;;;;;;4135833;28;20133;-58
2023/12/23 05:50:16;;;;;;;32.40;29.37;;;;;;;;;;4138948;28;20038;-59
2023/12/23 05:52:18;;;;;;;34.90;31.95;;;;;;;;;;4154961;28;20055;-59
2023/12/23 05:54:19;;;;;;;33.20;30.33;;;;;;;;;;4166404;28;20037;-59
2023/12/23 05:56:21;;;;;;;33.72;31.17;;;;;;;;;;4166244;28;20125;-59
2023/12/23 05:58:22;;;;;;;37.23;33.40;;;;;;;;;;4166325;28;20125;-59
2023/12/23 06:00:24;;;;;;;36.63;33.35;;;;;;;;;;4166094;28;20513;-59
2023/12/23 06:02:26;;;;;;;36.22;33.33;;;;;;;;;;4163350;28;20054;-59
2023/12/23 06:04:28;;;;;;;32.08;29.00;;;;;;;;;;4149590;28;20375;-59
2023/12/23 06:06:29;;;;;;;34.13;31.05;;;;;;;;;;4149806;28;20050;-59
2023/12/23 06:08:31;;;;;;;34.47;30.83;;;;;;;;;;4154596;28;20040;-59
2023/12/23 06:10:33;;;;;;;34.27;30.77;;;;;;;;;;4148237;28;20042;-59
2023/12/23 06:12:51;;;;;;;31.95;29.50;;;;;;;;;;4166267;28;20141;-59
2023/12/23 06:14:57;;;;;;;33.25;29.88;;;;;;;;;;4148773;28;20046;-59
2023/12/23 06:16:59;;;;;;;29.50;27.08;;;;;;;;;;4165969;28;20080;-59
2023/12/23 06:19:00;;;;;;;33.97;31.30;;;;;;;;;;4166146;28;20125;-60
2023/12/23 06:21:02;;;;;;;35.88;32.45;;;;;;;;;;4165755;28;20046;-60
2023/12/23 06:23:04;;;;;;;33.72;30.35;;;;;;;;;;4148556;28;20041;-59
2023/12/23 06:25:06;;;;;;;33.63;29.85;;;;;;;;;;4149133;28;20042;-60
2023/12/23 06:27:08;;;;;;;33.83;30.65;;;;;;;;;;4149477;28;20573;-60
2023/12/23 06:29:10;;;;;;;34.15;31.25;;;;;;;;;;4149418;28;20497;-60
2023/12/23 06:31:12;;;;;;;34.20;30.85;;;;;;;;;;4149615;28;20038;-61
2023/12/23 06:33:13;;;;;;;32.38;29.23;;;;;;;;;;4149609;28;20468;-61
2023/12/23 06:35:15;;;;;;;35.97;32.58;;;;;;;;;;4147427;28;20042;-61
2023/12/23 06:37:16;;;;;;;29.83;27.15;;;;;;;;;;4144315;28;20120;-60
2023/12/23 06:39:18;;;;;;;35.20;31.52;;;;;;;;;;4149573;28;20057;-61
2023/12/23 06:41:20;;;;;;;33.65;30.52;;;;;;;;;;4149130;28;20045;-60
2023/12/23 06:43:22;;;;;;;33.67;30.20;;;;;;;;;;4149356;28;20042;-61
2023/12/23 06:45:44;;;;;;;34.00;28.45;;;;;;;;;;4149335;28;20042;-61
2023/12/23 06:47:45;;;;;;;33.85;30.35;;;;;;;;;;4149340;28;20050;-61
2023/12/23 06:49:47;;;;;;;33.05;29.83;;;;;;;;;;4131746;28;20050;-61
2023/12/23 06:51:48;;;;;;;33.40;29.90;;;;;;;;;;4150116;28;20509;-61
2023/12/23 06:53:50;;;;;;;37.05;32.53;;;;;;;;;;4165319;28;20049;-61
2023/12/23 06:55:52;;;;;;;41.03;36.80;;;;;;;;;;4150786;28;20064;-62
2023/12/23 06:57:54;;;;;;;32.88;29.88;;;;;;;;;;4131601;28;20451;-61
2023/12/23 06:59:58;;;;;;;32.30;28.63;;;;;;;;;;4149171;28;20049;-61
2023/12/23 07:02:00;;;;;;;32.55;29.15;;;;;;;;;;4149025;28;20060;-61
2023/12/23 07:04:01;;;;;;;34.93;31.73;;;;;;;;;;4148983;28;20054;-61
2023/12/23 07:06:03;;;;;;;37.75;29.58;;;;;;;;;;4149054;28;20076;-60
2023/12/23 07:08:06;;;;;;;37.87;31.47;;;;;;;;;;4149011;28;20076;-61
2023/12/23 07:10:07;;;;;;;33.88;30.77;;;;;;;;;;4165146;28;20041;-61
2023/12/23 07:12:09;;;;;;;31.75;29.13;;;;;;;;;;4165189;28;20124;-61
2023/12/23 07:14:11;;;;;;;32.92;29.80;;;;;;;;;;4165439;28;20045;-61
2023/12/23 07:16:13;;;;;;;32.23;29.50;;;;;;;;;;4165190;28;20049;-60
2023/12/23 07:18:14;;;;;;;31.98;29.65;;;;;;;;;;4165098;28;20091;-61
2023/12/23 07:20:16;;;;;;;36.13;33.40;;;;;;;;;;4151407;28;20103;-61
2023/12/23 07:22:17;;;;;;;35.38;32.25;;;;;;;;;;4148747;28;20042;-61
2023/12/23 07:24:19;;;;;;;34.15;31.77;;;;;;;;;;4148600;28;20099;-61
2023/12/23 07:26:22;;;;;;;35.13;31.60;;;;;;;;;;4148664;28;20045;-61
2023/12/23 07:28:23;;;;;;;;;;;;;;;;;;4149124;28;20049;-63
2023/12/23 07:30:25;;;;;;;31.70;28.55;;;;;;;;;;4148526;28;19928;-63
2023/12/23 07:32:27;;;;;;;41.47;32.53;;;;;;;;;;4148684;28;20413;-63
2023/12/23 07:34:28;;;;;;;34.80;31.53;;;;;;;;;;4146724;28;20049;-62
2023/12/23 07:36:30;;;;;;;32.05;29.33;;;;;;;;;;4145792;28;20494;-63
2023/12/23 07:38:31;;;;;;;37.60;34.13;;;;;;;;;;4147652;28;20076;-63
2023/12/23 07:40:35;;;;;;;33.88;30.80;;;;;;;;;;4145261;28;20096;-63
2023/12/23 07:42:36;;;;;;;35.70;32.03;;;;;;;;;;4145663;28;20048;-62
2023/12/23 07:44:38;;;;;;;32.17;28.98;;;;;;;;;;4146555;28;20485;-63
2023/12/23 07:46:40;;;;;;;33.37;30.10;;;;;;;;;;4146826;28;20046;-63
2023/12/23 07:48:41;;;;;;;32.92;29.92;;;;;;;;;;4146959;28;20292;-63
2023/12/23 07:50:43;;;;;;;36.65;33.17;;;;;;;;;;4148104;28;20034;-63
2023/12/23 07:52:44;;;;;;;45.55;33.13;;;;;;;;;;4157166;28;20036;-63
2023/12/23 07:54:46;;;;;;;33.33;30.17;;;;;;;;;;4163437;28;20073;-63
2023/12/23 07:56:48;;;;;;;33.28;29.75;;;;;;;;;;4148260;28;20072;-63
2023/12/23 07:58:49;;;;;;;37.83;34.30;;;;;;;;;;4148121;28;20046;-63
2023/12/23 08:00:51;;;;;;;39.17;34.55;;;;;;;;;;4147777;28;20041;-63
2023/12/23 08:02:52;;;;;;;37.35;33.53;;;;;;;;;;4147892;28;20464;-63
2023/12/23 08:04:54;;;;;;;33.22;30.10;;;;;;;;;;4148091;28;20058;-63
2023/12/23 08:06:56;;;;;;;38.90;34.17;;;;;;;;;;4148080;28;20060;-63
2023/12/23 08:08:58;;;;;;;42.53;35.15;;;;;;;;;;4156233;28;20040;-63
2023/12/23 08:10:59;;;;;;;36.33;32.33;;;;;;;;;;4164179;28;20453;-63
2023/12/23 08:13:02;;;;;;;40.33;34.15;;;;;;;;;;4164345;28;20103;-63
2023/12/23 08:15:04;;;;;;;33.83;30.05;;;;;;;;;;4162560;28;20042;-63
2023/12/23 08:17:05;;;;;;;32.03;29.25;;;;;;;;;;4147845;28;20125;-63
2023/12/23 08:19:07;;;;;;;36.38;33.50;;;;;;;;;;4147858;28;20042;-63
2023/12/23 08:21:08;;;;;;;30.67;27.88;;;;;;;;;;4147996;28;20501;-63
2023/12/23 08:23:10;;;;;;;34.55;31.30;;;;;;;;;;4148021;28;20042;-63
2023/12/23 08:25:12;;;;;;;38.77;33.20;;;;;;;;;;4147917;28;20069;-63
2023/12/23 08:27:13;;;;;;;36.03;32.93;;;;;;;;;;4147835;28;20581;-63
2023/12/23 08:29:15;;;;;;;32.10;29.50;;;;;;;;;;4147677;28;20276;-63
2023/12/23 08:31:17;;;;;;;34.28;30.95;;;;;;;;;;4147703;28;20041;-63
2023/12/23 08:33:19;;;;;;;33.42;30.83;;;;;;;;;;4147726;28;20111;-63
2023/12/23 08:35:21;;;;;;;32.50;29.27;;;;;;;;;;4147831;28;20042;-63
2023/12/23 08:37:23;;;;;;;34.65;31.45;;;;;;;;;;4147666;28;20281;-63
2023/12/23 08:39:24;;;;;;;42.55;32.05;;;;;;;;;;4147963;28;20567;-61
2023/12/23 08:41:26;;;;;;;33.60;30.20;;;;;;;;;;4147642;28;20111;-61
2023/12/23 08:43:28;;;;;;;33.83;30.73;;;;;;;;;;4147657;28;20112;-61
2023/12/23 08:45:29;;;;;;;31.75;28.70;;;;;;;;;;4147930;28;20280;-61
2023/12/23 08:47:31;;;;;;;31.38;28.02;;;;;;;;;;4147868;28;20038;-61
2023/12/23 08:49:33;;;;;;;34.28;30.83;;;;;;;;;;4149354;28;20052;-61
2023/12/23 08:51:36;;;;;;;37.05;31.90;;;;;;;;;;4150921;28;20131;-61
2023/12/23 08:53:38;;;;;;;35.95;32.25;;;;;;;;;;4166792;28;20053;-60
2023/12/23 08:55:39;;;;;;;32.77;29.93;;;;;;;;;;4167388;28;20068;-61
2023/12/23 08:57:41;;;;;;;28.85;27.08;;;;;;;;;;4167358;28;20291;-61
2023/12/23 08:59:43;;;;;;;33.10;30.23;;;;;;;;;;4167054;28;20448;-62
2023/12/23 09:01:44;;;;;;;32.47;29.63;;;;;;;;;;4167067;28;20417;-61
2023/12/23 09:03:46;;;;;;;33.28;29.95;;;;;;;;;;4149348;28;20053;-61
2023/12/23 09:05:47;;;;;;;30.47;28.07;;;;;;;;;;4167185;28;20156;-62
2023/12/23 09:07:49;;;;;;;31.02;28.25;;;;;;;;;;4167157;28;20043;-61
2023/12/23 09:09:52;;;;;;;32.30;29.48;;;;;;;;;;4166657;28;20132;-61
2023/12/23 09:11:54;;;;;;;31.05;28.63;;;;;;;;;;4167066;28;20091;-62
2023/12/23 09:13:55;;;;;;;32.67;30.23;;;;;;;;;;4155603;28;20451;-61
2023/12/23 09:15:59;;;;;;;31.65;29.00;;;;;;;;;;4150505;28;20042;-61
2023/12/23 09:18:01;;;;;;;32.75;29.88;;;;;;;;;;4150752;28;20045;-61
2023/12/23 09:20:06;;;;;;;34.72;31.73;;;;;;;;;;4150310;28;20038;-61
2023/12/23 09:22:08;;;;;;;31.85;28.90;;;;;;;;;;4150701;28;20111;-61
2023/12/23 09:24:09;;;;;;;33.53;30.70;;;;;;;;;;4150662;28;20041;-61
2023/12/23 09:26:13;;;;;;;31.60;28.90;;;;;;;;;;4150543;28;20058;-61
2023/12/23 09:28:14;;;;;;;31.33;28.98;;;;;;;;;;4150373;28;20439;-61
2023/12/23 09:30:16;;;;;;;31.77;28.17;;;;;;;;;;4150283;28;20516;-62
2023/12/23 09:32:17;;;;;;;32.67;29.87;;;;;;;;;;4150620;28;20037;-61
2023/12/23 09:34:20;;;;;;;31.87;28.73;;;;;;;;;;4150415;28;20046;-61
2023/12/23 09:36:22;;;;;;;27.77;25.10;;;;;;;;;;4150220;28;20525;-61
2023/12/23 09:38:24;;;;;;;27.95;25.35;;;;;;;;;;4150378;28;20557;-61
2023/12/23 09:40:26;;;;;;;28.80;26.03;;;;;;;;;;4150252;28;20041;-61
2023/12/23 09:42:27;;;;;;;30.38;28.27;;;;;;;;;;4150313;28;20045;-61
2023/12/23 09:44:29;;;;;;;34.45;31.52;;;;;;;;;;4150262;28;20055;-62
2023/12/23 09:46:31;;;;;;;31.95;28.98;;;;;;;;;;4150277;28;20079;-61
2023/12/23 09:48:33;;;;;;;29.83;26.77;;;;;;;;;;4150328;28;20048;-62
2023/12/23 09:50:34;;;;;;;32.35;29.75;;;;;;;;;;4150205;28;20042;-61
2023/12/23 09:52:36;;;;;;;33.75;29.27;;;;;;;;;;4157871;28;20037;-61
2023/12/23 09:54:40;;;;;;;32.13;29.20;;;;;;;;;;4166481;28;20505;-61
2023/12/23 09:56:42;;;;;;;32.08;29.52;;;;;;;;;;4166346;28;20288;-62
2023/12/23 09:58:44;;;;;;;29.08;26.42;;;;;;;;;;4166388;28;20400;-61
2023/12/23 10:00:46;;;;;;;32.75;29.75;;;;;;;;;;4165899;28;20064;-61
2023/12/23 10:02:47;;;;;;;32.27;29.70;;;;;;;;;;4166234;28;20580;-61
2023/12/23 10:04:49;;;;;;;30.90;28.08;;;;;;;;;;4166565;28;20296;-61
2023/12/23 10:06:52;;;;;;;32.53;29.48;;;;;;;;;;4166301;28;20041;-61
2023/12/23 10:08:53;;;;;;;32.70;29.45;;;;;;;;;;4165089;28;20043;-61
2023/12/23 10:10:55;;;;;;;29.63;26.80;;;;;;;;;;4149675;28;20034;-61
2023/12/23 10:12:57;;;;;;;33.05;29.10;;;;;;;;;;4149763;28;20068;-60
2023/12/23 10:14:58;;;;;;;29.60;27.08;;;;;;;;;;4149687;28;20072;-61
2023/12/23 10:17:00;;;;;;;30.90;28.33;;;;;;;;;;4149967;28;20046;-61
2023/12/23 10:19:02;;;;;;;30.80;28.33;;;;;;;;;;4149575;28;20042;-61
2023/12/23 10:21:04;;;;;;;29.30;26.53;;;;;;;;;;4149651;28;20042;-61
2023/12/23 10:23:07;;;;;;;30.80;28.27;;;;;;;;;;4149443;28;20292;-61
2023/12/23 10:25:09;;;;;;;30.42;27.52;;;;;;;;;;4149515;28;20042;-61
2023/12/23 10:27:11;;;;;;;30.30;27.57;;;;;;;;;;4145398;28;20495;-61
2023/12/23 10:29:15;;;;;;;32.38;28.63;;;;;;;;;;4138754;28;20539;-61
2023/12/23 10:31:17;;;;;;;32.55;29.05;;;;;;;;;;4140723;28;20054;-60
2023/12/23 10:33:21;;;;;;;27.73;25.20;;;;;;;;;;4143306;28;20112;-61
2023/12/23 10:35:25;;;;;;;27.73;25.00;;;;;;;;;;4138305;28;20096;-61
2023/12/23 10:37:27;;;;;;;29.48;27.10;;;;;;;;;;4144773;28;20058;-61
2023/12/23 10:39:29;;;;;;;;;;;;;;;;;;4148310;28;20030;-60
2023/12/23 10:41:49;;;;;;;31.80;27.00;;;;;;;;;;4149586;28;19928;-61
2023/12/23 10:43:52;;;;;;;32.17;29.00;;;;;;;;;;4147959;28;20432;-61
2023/12/23 10:45:54;;;;;;;29.40;26.13;;;;;;;;;;4149230;28;20046;-61
2023/12/23 10:47:57;;;;;;;28.73;26.73;;;;;;;;;;4138803;28;20042;-61
2023/12/23 10:49:59;;;;;;;29.50;27.20;;;;;;;;;;4133664;28;20479;-61
2023/12/23 10:52:01;;;;;;;32.95;29.33;;;;;;;;;;4143972;28;20823;-61
2023/12/23 10:54:03;;;;;;;27.83;25.63;;;;;;;;;;4142117;28;20074;-61
2023/12/23 10:56:05;;;;;;;;;;;;;;;;;;4133324;28;20074;-61
2023/12/23 10:58:09;;;;;;;30.65;28.02;;;;;;;;;;4136800;28;20295;-61
2023/12/23 11:00:11;;;;;;;28.65;26.63;;;;;;;;;;4147635;28;20115;-63
2023/12/23 11:02:13;;;;;;;30.98;28.60;;;;;;;;;;4142572;28;20566;-61
2023/12/23 11:04:15;;;;;;;29.77;27.15;;;;;;;;;;4148661;28;20542;-62
2023/12/23 11:06:18;;;;;;;26.65;24.52;;;;;;;;;;4148788;28;20065;-61
2023/12/23 11:08:21;;;;;;;27.52;25.00;;;;;;;;;;4150799;28;20155;-61
2023/12/23 11:10:23;;;;;;;28.60;26.70;;;;;;;;;;4161557;28;20559;-61
2023/12/23 11:12:24;;;;;;;29.08;26.92;;;;;;;;;;4141914;28;20506;-61
2023/12/23 11:14:26;;;;;;;31.92;29.00;;;;;;;;;;4147716;28;20038;-62
2023/12/23 11:16:27;;;;;;;29.23;26.70;;;;;;;;;;4146690;28;20046;-62
2023/12/23 11:18:29;;;;;;;31.50;27.90;;;;;;;;;;4148599;28;20061;-62
2023/12/23 11:20:36;;;;;;;29.90;26.30;;;;;;;;;;4145356;28;20116;-62
2023/12/23 11:22:38;;;;;;;26.30;23.65;;;;;;;;;;4133361;28;20456;-62
2023/12/23 11:24:40;;;;;;;30.02;27.95;;;;;;;;;;4132239;28;20038;-61
2023/12/23 11:26:42;;;;;;;29.67;27.23;;;;;;;;;;4132430;28;20138;-62
2023/12/23 11:28:44;;;;;;;;;;;;;;;;;;4132656;28;20050;-61
2023/12/23 11:30:49;;;;;;;30.55;27.70;;;;;;;;;;4128740;28;19929;-61
2023/12/23 11:32:53;;;;;;;31.08;28.38;;;;;;;;;;4148633;28;20188;-62
2023/12/23 11:34:57;;;;;;;28.20;25.73;;;;;;;;;;4148793;28;20117;-61
2023/12/23 11:36:59;;;;;;;30.73;26.98;;;;;;;;;;4148134;28;20038;-61
2023/12/23 11:39:01;;;;;;;27.93;25.77;;;;;;;;;;4133400;28;20092;-62
2023/12/23 11:41:03;;;;;;;30.83;28.35;;;;;;;;;;4146568;28;20061;-62
2023/12/23 11:43:04;;;;;;;29.90;27.00;;;;;;;;;;4147864;28;20069;-61
2023/12/23 11:45:06;;;;;;;30.20;28.13;;;;;;;;;;4139476;28;20062;-62
2023/12/23 11:47:08;;;;;;;28.27;26.30;;;;;;;;;;4135050;28;20493;-61
2023/12/23 11:49:10;;;;;;;28.00;25.83;;;;;;;;;;4141204;28;20041;-62
2023/12/23 11:51:12;;;;;;;29.45;26.88;;;;;;;;;;4148209;28;20046;-62
2023/12/23 11:53:15;;;;;;;27.75;24.75;;;;;;;;;;4150362;28;20524;-62
2023/12/23 11:55:16;;;;;;;;;;;;;;;;;;4138281;28;20521;-62